Time;durP1;ratioP1;P1;durP2;ratioP2;P2;SDS_P1;SDS_P2;PMS_P1;PMS_P2;Temp;Humidity;BMP_temperature;BMP_pressure;BME280_temperature;BME280_humidity;BME280_pressure;Samples;Min_cycle;Max_cycle;Signal;HPM_P1;HPM_P2
2022/10/15 00:01:36;;;;;;;;;10.00;5.25;;;;;17.67;67.72;100397.75;5101582;27;45389;-41
2022/10/15 00:04:02;;;;;;;;;5.00;5.00;;;;;17.68;67.75;100399.44;5101673;27;45248;-42
2022/10/15 00:06:27;;;;;;;;;8.50;6.75;;;;;17.70;67.66;100402.84;5075203;27;45379;-42
2022/10/15 00:08:52;;;;;;;;;6.00;5.50;;;;;17.71;67.53;100403.72;5094812;27;67382;-43
2022/10/15 00:11:21;;;;;;;;;6.50;5.75;;;;;17.71;67.79;100401.06;5078444;28;45539;-42
2022/10/15 00:13:46;;;;;;;;;5.00;5.00;;;;;17.72;67.75;100392.16;5096692;27;45232;-44
2022/10/15 00:16:17;;;;;;;;;7.50;6.50;;;;;17.72;67.98;100392.16;5097938;27;45755;-41
2022/10/15 00:18:43;;;;;;;;;6.50;6.50;;;;;17.73;68.00;100392.06;5099050;27;45394;-42
2022/10/15 00:21:11;;;;;;;;;8.50;6.25;;;;;17.74;67.96;100390.25;5097944;27;45530;-42
2022/10/15 00:23:37;;;;;;;;;7.25;6.00;;;;;17.73;68.34;100389.41;5084072;27;45287;-43
2022/10/15 00:26:14;;;;;;;;;8.75;7.75;;;;;17.73;68.07;100383.28;5086130;27;45149;-42
2022/10/15 00:28:40;;;;;;;;;8.75;8.75;;;;;17.75;68.32;100384.03;5096920;27;45432;-42
2022/10/15 00:31:17;;;;;;;;;7.25;6.75;;;;;17.75;67.98;100381.38;5081857;27;47137;-42
2022/10/15 00:33:42;;;;;;;;;9.00;7.75;;;;;17.74;68.23;100374.38;5096714;27;45339;-42
2022/10/15 00:36:17;;;;;;;;;12.75;9.25;;;;;17.76;68.28;100380.44;5077601;27;45322;-44
2022/10/15 00:38:42;;;;;;;;;11.00;10.25;;;;;17.75;68.39;100378.75;5095269;27;45547;-46
2022/10/15 00:41:13;;;;;;;;;9.50;8.75;;;;;17.74;68.52;100372.59;5099459;27;54248;-46
2022/10/15 00:43:44;;;;;;;;;13.00;9.25;;;;;17.75;68.51;100365.50;5076051;27;45339;-43
2022/10/15 00:46:26;;;;;;;;;6.75;6.25;;;;;17.76;68.70;100370.72;5093513;27;45436;-43
2022/10/15 00:48:56;;;;;;;;;12.50;8.00;;;;;17.77;68.55;100374.19;5069929;27;45600;-46
2022/10/15 00:51:27;;;;;;;;;9.25;9.00;;;;;17.77;68.77;100372.38;5065112;27;47179;-43
2022/10/15 00:53:52;;;;;;;;;12.25;9.00;;;;;17.78;68.73;100373.25;5062646;27;46102;-45
2022/10/15 00:56:20;;;;;;;;;16.25;14.25;;;;;17.78;68.79;100375.91;5090979;27;45351;-45
2022/10/15 00:58:46;;;;;;;;;11.00;11.00;;;;;17.78;68.96;100365.31;5077517;27;45547;-43
2022/10/15 01:01:12;;;;;;;;;10.00;9.00;;;;;17.77;68.71;100367.09;5089154;27;46222;-44
2022/10/15 01:03:37;;;;;;;;;10.75;8.75;;;;;17.79;68.92;100365.19;5074840;27;62742;-44
2022/10/15 01:06:03;;;;;;;;;7.75;7.50;;;;;17.78;69.05;100355.56;5074670;27;62483;-44
2022/10/15 01:08:28;;;;;;;;;12.00;6.00;;;;;17.79;69.10;100357.25;5094442;27;45441;-44
2022/10/15 01:11:13;;;;;;;;;6.75;6.75;;;;;17.80;68.99;100351.03;5077737;28;70896;-43
2022/10/15 01:13:46;;;;;;;;;9.50;7.00;;;;;17.81;68.99;100344.81;5077225;27;45234;-44
2022/10/15 01:16:31;;;;;;;;;5.00;5.00;;;;;17.81;68.68;100342.16;5099906;27;45335;-43
2022/10/15 01:19:35;;;;;;;;;9.50;7.25;;;;;17.81;69.19;100328.06;5074615;27;45493;-44
2022/10/15 01:22:05;;;;;;;;;7.50;5.25;;;;;17.79;68.93;100322.84;5084995;27;46064;-43
2022/10/15 01:24:42;;;;;;;;;3.75;3.25;;;;;17.79;68.94;100328.16;5087578;27;45238;-45
2022/10/15 01:27:26;;;;;;;;;6.00;4.75;;;;;17.77;69.47;100318.63;5056041;28;45454;-43
2022/10/15 01:29:55;;;;;;;;;6.00;6.00;;;;;17.77;69.40;100316.81;5078365;27;45384;-45
2022/10/15 01:32:26;;;;;;;;;6.00;4.00;;;;;17.76;69.04;100308.97;5084576;27;47171;-47
2022/10/15 01:35:17;;;;;;;;;6.75;4.75;;;;;17.75;69.46;100302.81;5096228;27;45743;-46
2022/10/15 01:38:25;;;;;;;;;4.00;4.00;;;;;17.76;69.27;100298.38;5088183;27;45174;-47
2022/10/15 01:40:54;;;;;;;;;4.00;4.00;;;;;17.75;69.37;100289.59;5008406;28;45543;-45
2022/10/15 01:43:34;;;;;;;;;4.50;4.00;;;;;17.76;69.34;100283.38;4999682;28;45551;-43
2022/10/15 01:46:05;;;;;;;;;2.00;2.00;;;;;17.76;69.16;100280.72;5045552;27;45498;-42
2022/10/15 01:48:32;;;;;;;;;3.00;2.00;;;;;17.75;69.14;100279.00;5095764;27;45496;-44
2022/10/15 01:51:00;;;;;;;;;3.75;3.00;;;;;17.75;69.28;100275.53;5078530;27;52979;-48
2022/10/15 01:53:27;;;;;;;;;5.00;4.00;;;;;17.75;69.25;100275.53;5091764;27;45785;-48
2022/10/15 01:55:59;;;;;;;;;1.50;1.50;;;;;17.75;69.06;100276.38;5080559;27;45564;-47
2022/10/15 01:58:25;;;;;;;;;2.50;2.50;;;;;17.74;69.30;100265.88;5092833;27;45481;-46
2022/10/15 02:00:53;;;;;;;;;4.00;4.00;;;;;17.76;69.11;100263.97;5096148;27;50561;-47
2022/10/15 02:03:18;;;;;;;;;4.00;4.00;;;;;17.76;69.26;100266.63;5076596;27;46366;-43
2022/10/15 02:05:47;;;;;;;;;5.75;5.00;;;;;17.74;69.17;100257.94;5073623;27;65276;-47
2022/10/15 02:08:31;;;;;;;;;5.50;3.25;;;;;17.75;69.24;100249.06;5075847;27;45268;-44
2022/10/15 02:11:06;;;;;;;;;6.00;6.00;;;;;17.76;69.02;100248.09;5077215;27;45379;-42
2022/10/15 02:13:59;;;;;;;;;4.00;4.00;;;;;17.75;69.27;100241.97;5079631;27;45334;-45
2022/10/15 02:16:35;;;;;;;;;5.00;4.75;;;;;17.78;69.21;100238.28;5079320;27;45698;-44
2022/10/15 02:19:21;;;;;;;;;6.00;6.00;;;;;17.76;69.21;100225.13;5075349;27;45430;-42
2022/10/15 02:21:51;;;;;;;;;4.00;3.50;;;;;17.72;69.31;100225.44;5076357;27;45594;-45
2022/10/15 02:24:25;;;;;;;;;4.00;3.75;;;;;17.70;69.61;100227.34;5069164;28;47685;-44
2022/10/15 02:26:54;;;;;;;;;3.00;3.00;;;;;17.71;69.58;100221.09;5089372;27;45481;-46
2022/10/15 02:29:22;;;;;;;;;3.50;3.50;;;;;17.72;69.05;100213.03;5071918;27;45361;-44
2022/10/15 02:31:48;;;;;;;;;3.25;3.25;;;;;17.70;69.41;100208.81;5077365;27;45321;-47
2022/10/15 02:34:17;;;;;;;;;4.00;2.75;;;;;17.68;69.46;100198.31;5074854;27;52318;-43
2022/10/15 02:36:43;;;;;;;;;5.00;4.00;;;;;17.69;69.42;100193.88;5080379;27;45562;-47
2022/10/15 02:39:15;;;;;;;;;3.50;2.50;;;;;17.70;69.50;100192.94;5099543;27;69132;-46
2022/10/15 02:41:40;;;;;;;;;2.75;2.75;;;;;17.71;69.63;100186.69;5094268;27;45550;-45
2022/10/15 02:44:06;;;;;;;;;4.00;3.00;;;;;17.71;69.49;100171.66;5066088;27;46033;-43
2022/10/15 02:46:31;;;;;;;;;3.75;3.00;;;;;17.71;69.58;100168.19;5088657;27;45268;-44
2022/10/15 02:48:57;;;;;;;;;4.00;4.00;;;;;17.70;69.76;100156.72;5085303;27;45392;-45
2022/10/15 02:51:22;;;;;;;;;4.50;4.25;;;;;17.72;69.50;100153.97;5099010;27;45281;-45
2022/10/15 02:53:48;;;;;;;;;4.00;3.00;;;;;17.72;69.59;100157.47;5100661;27;65270;-42
2022/10/15 02:56:13;;;;;;;;;6.50;4.00;;;;;17.74;69.64;100155.59;5093627;27;70027;-43
2022/10/15 02:58:39;;;;;;;;;4.00;3.25;;;;;17.75;69.46;100151.97;5101954;27;45328;-45
2022/10/15 03:01:04;;;;;;;;;3.00;3.00;;;;;17.75;69.58;100151.97;5099911;27;47056;-46
2022/10/15 03:03:29;;;;;;;;;2.50;2.50;;;;;17.78;69.52;100148.28;5056227;27;48162;-46
2022/10/15 03:05:55;;;;;;;;;5.75;4.25;;;;;17.79;69.51;100144.69;5095534;27;63145;-43
2022/10/15 03:08:20;;;;;;;;;4.00;3.00;;;;;17.80;69.62;100149.88;5096295;27;69379;-45
2022/10/15 03:10:45;;;;;;;;;3.00;3.00;;;;;17.82;69.70;100144.47;5054403;27;65661;-47
2022/10/15 03:13:11;;;;;;;;;3.00;2.00;;;;;17.81;69.64;100137.47;5099477;27;70050;-46
2022/10/15 03:15:36;;;;;;;;;2.00;2.00;;;;;17.82;69.47;100134.72;5100787;27;45274;-44
2022/10/15 03:18:02;;;;;;;;;3.00;2.00;;;;;17.84;69.59;100130.19;5079840;27;45453;-44
2022/10/15 03:20:27;;;;;;;;;2.00;2.00;;;;;17.86;69.83;100124.81;5097468;27;45251;-44
2022/10/15 03:22:53;;;;;;;;;1.75;1.75;;;;;17.87;69.60;100115.09;5087840;27;74257;-42
2022/10/15 03:25:18;;;;;;;;;1.00;1.00;;;;;17.87;69.67;100123.88;5100331;27;61272;-43
2022/10/15 03:27:43;;;;;;;;;3.00;1.00;;;;;17.88;69.91;100111.47;5089759;27;65574;-45
2022/10/15 03:30:09;;;;;;;;;3.00;1.00;;;;;17.87;69.69;100101.88;5100472;27;72279;-43
2022/10/15 03:32:34;;;;;;;;;1.25;1.00;;;;;17.87;69.65;100102.69;5097758;27;46934;-44
2022/10/15 03:35:00;;;;;;;;;1.00;1.00;;;;;17.88;69.89;100100.91;5089130;27;59309;-46
2022/10/15 03:37:25;;;;;;;;;2.00;2.00;;;;;17.87;69.82;100094.75;5083529;27;62697;-44
2022/10/15 03:39:50;;;;;;;;;1.75;0.25;;;;;17.88;69.74;100092.94;5085477;27;57232;-43
2022/10/15 03:42:16;;;;;;;;;1.00;0.50;;;;;17.88;69.92;100091.16;5090218;27;62574;-43
2022/10/15 03:44:41;;;;;;;;;0.00;0.00;;;;;17.89;69.88;100092.84;5098214;27;72137;-44
2022/10/15 03:47:06;;;;;;;;;0.50;0.00;;;;;17.90;69.82;100077.81;5089781;27;45439;-44
2022/10/15 03:49:32;;;;;;;;;2.00;1.25;;;;;17.90;70.24;100076.03;5101292;27;51700;-45
2022/10/15 03:51:57;;;;;;;;;0.25;0.25;;;;;17.91;69.96;100071.56;5098941;27;71183;-47
2022/10/15 03:54:23;;;;;;;;;1.00;0.25;;;;;17.90;69.80;100076.03;5099230;27;45434;-44
2022/10/15 03:56:48;;;;;;;;;0.00;0.00;;;;;17.90;69.86;100073.38;5095408;27;59275;-43
2022/10/15 03:59:13;;;;;;;;;0.00;0.00;;;;;17.91;69.92;100068.94;5080508;27;56971;-44
2022/10/15 04:01:39;;;;;;;;;1.00;0.50;;;;;17.90;70.12;100070.75;5096405;27;46080;-49
2022/10/15 04:04:04;;;;;;;;;0.75;0.00;;;;;17.91;70.03;100059.19;5096382;27;72510;-43
2022/10/15 04:06:33;;;;;;;;;1.00;0.00;;;;;17.90;69.99;100056.63;5093479;27;66642;-43
2022/10/15 04:08:58;;;;;;;;;1.50;0.25;;;;;17.90;70.04;100052.22;5082916;27;45325;-46
2022/10/15 04:11:23;;;;;;;;;2.50;0.00;;;;;17.92;70.13;100052.94;5094013;27;45971;-44
2022/10/15 04:13:49;;;;;;;;;0.25;0.00;;;;;17.94;70.24;100047.53;5097007;27;63246;-44
2022/10/15 04:16:15;;;;;;;;;0.75;0.00;;;;;17.94;70.27;100052.84;5091912;27;45270;-44
2022/10/15 04:18:41;;;;;;;;;0.00;0.00;;;;;17.94;70.10;100047.53;5099164;27;45586;-47
2022/10/15 04:21:06;;;;;;;;;0.00;0.00;;;;;17.94;70.29;100048.38;5095079;27;71283;-43
2022/10/15 04:23:31;;;;;;;;;2.00;0.00;;;;;17.92;70.42;100039.72;5092362;27;58831;-44
2022/10/15 04:26:00;;;;;;;;;2.00;0.00;;;;;17.90;70.07;100041.63;5092322;27;45453;-43
2022/10/15 04:28:26;;;;;;;;;1.25;0.00;;;;;17.91;70.30;100040.66;5094973;27;45451;-44
2022/10/15 04:30:57;;;;;;;;;0.00;0.00;;;;;17.95;70.44;100036.00;5078471;27;45426;-42
2022/10/15 04:33:22;;;;;;;;;0.00;0.00;;;;;17.94;70.57;100037.78;5093750;27;45508;-44
2022/10/15 04:35:57;;;;;;;;;1.50;0.00;;;;;17.96;70.57;100037.69;5075707;27;58172;-43
2022/10/15 04:38:22;;;;;;;;;3.00;0.00;;;;;17.95;70.51;100047.41;5091233;27;45313;-43
2022/10/15 04:40:48;;;;;;;;;1.00;1.00;;;;;17.94;70.72;100040.44;5064090;27;72905;-45
2022/10/15 04:43:13;;;;;;;;;0.00;0.00;;;;;17.93;70.42;100032.59;5094852;27;66519;-47
2022/10/15 04:45:39;;;;;;;;;0.00;0.00;;;;;17.96;70.48;100041.19;5084686;27;45528;-48
2022/10/15 04:48:04;;;;;;;;;0.00;0.00;;;;;17.96;70.34;100040.34;5097275;27;70628;-45
2022/10/15 04:50:29;;;;;;;;;2.00;1.00;;;;;17.96;70.71;100043.00;5078073;27;48434;-47
2022/10/15 04:52:55;;;;;;;;;0.75;0.50;;;;;17.96;70.33;100049.13;5095511;27;64733;-49
2022/10/15 04:55:20;;;;;;;;;1.25;1.00;;;;;17.96;70.61;100045.63;5098690;27;45322;-45
2022/10/15 04:57:45;;;;;;;;;1.00;0.75;;;;;17.97;70.60;100052.59;5092695;27;65462;-49
2022/10/15 05:00:11;;;;;;;;;1.00;1.00;;;;;17.99;70.83;100053.38;5076570;27;71556;-49
2022/10/15 05:02:40;;;;;;;;;1.00;1.00;;;;;18.01;70.86;100054.13;5088777;27;45587;-48
2022/10/15 05:05:06;;;;;;;;;1.00;1.00;;;;;17.99;70.73;100056.88;5092624;27;45518;-47
2022/10/15 05:07:31;;;;;;;;;0.50;0.00;;;;;18.00;70.27;100055.06;5097765;27;45302;-48
2022/10/15 05:09:57;;;;;;;;;0.00;0.00;;;;;17.97;70.82;100053.47;5089468;27;71803;-46
2022/10/15 05:12:22;;;;;;;;;0.00;0.00;;;;;17.97;70.84;100060.56;5097145;27;45373;-43
2022/10/15 05:14:48;;;;;;;;;2.00;0.00;;;;;17.98;70.83;100056.97;5095457;27;45288;-43
2022/10/15 05:17:13;;;;;;;;;0.00;0.00;;;;;17.99;71.16;100058.66;5095779;27;65924;-44
2022/10/15 05:19:38;;;;;;;;;1.75;0.00;;;;;18.01;70.92;100054.94;5088452;27;49063;-48
2022/10/15 05:22:04;;;;;;;;;0.00;0.00;;;;;18.01;70.42;100062.91;5066693;28;45481;-45
2022/10/15 05:24:29;;;;;;;;;3.00;0.00;;;;;18.00;70.83;100065.66;5095756;27;68962;-47
2022/10/15 05:26:54;;;;;;;;;2.00;0.00;;;;;18.00;70.98;100052.41;5092520;27;64738;-49
2022/10/15 05:29:19;;;;;;;;;1.00;0.00;;;;;18.01;71.11;100059.41;5088323;27;66068;-47
2022/10/15 05:31:45;;;;;;;;;2.00;0.00;;;;;18.01;70.80;100051.47;5089671;27;45433;-48
2022/10/15 05:34:11;;;;;;;;;0.75;0.75;;;;;18.01;70.95;100059.41;5088873;27;45582;-46
2022/10/15 05:36:37;;;;;;;;;1.00;1.00;;;;;18.01;70.83;100060.25;5096805;27;50232;-46
2022/10/15 05:39:05;;;;;;;;;0.00;0.00;;;;;18.02;71.24;100056.66;5085907;27;46126;-45
2022/10/15 05:41:31;;;;;;;;;0.00;0.00;;;;;18.05;70.92;100062.69;5084648;27;45316;-44
2022/10/15 05:43:57;;;;;;;;;0.00;0.00;;;;;18.07;71.06;100052.84;5089920;27;53285;-47
2022/10/15 05:46:23;;;;;;;;;0.50;0.50;;;;;18.07;70.96;100050.19;5087080;27;45738;-43
2022/10/15 05:48:56;;;;;;;;;0.00;0.00;;;;;18.07;70.97;100056.31;5095124;27;46334;-44
2022/10/15 05:51:22;;;;;;;;;3.00;0.75;;;;;18.08;70.82;100052.72;5097788;27;45753;-49
2022/10/15 05:53:51;;;;;;;;;0.00;0.00;;;;;18.10;71.20;100053.47;5075683;27;45458;-45
2022/10/15 05:56:16;;;;;;;;;0.00;0.00;;;;;18.12;70.88;100048.06;5099196;27;45236;-44
2022/10/15 05:58:42;;;;;;;;;2.75;0.00;;;;;18.14;70.92;100043.50;5095835;27;65494;-46
2022/10/15 06:01:09;;;;;;;;;0.00;0.00;;;;;18.16;71.11;100046.91;5097178;27;45364;-45
2022/10/15 06:03:35;;;;;;;;;0.00;0.00;;;;;18.16;70.92;100042.44;5099529;27;45320;-44
2022/10/15 06:06:00;;;;;;;;;2.00;0.00;;;;;18.17;71.18;100046.78;5097911;27;45401;-43
2022/10/15 06:08:28;;;;;;;;;0.00;0.00;;;;;18.17;70.90;100054.72;5097275;27;70780;-47
2022/10/15 06:10:54;;;;;;;;;0.00;0.00;;;;;18.18;71.21;100048.50;5100087;27;45327;-43
2022/10/15 06:13:20;;;;;;;;;2.00;0.75;;;;;18.18;70.63;100052.94;5074653;27;45327;-44
2022/10/15 06:15:45;;;;;;;;;1.00;1.00;;;;;18.16;71.11;100054.84;5071733;28;45340;-45
2022/10/15 06:18:14;;;;;;;;;1.50;1.00;;;;;18.17;71.20;100052.09;5098149;27;60836;-47
2022/10/15 06:20:41;;;;;;;;;0.75;0.50;;;;;18.18;71.25;100053.78;5100647;27;45530;-42
2022/10/15 06:23:06;;;;;;;;;2.00;1.00;;;;;18.18;71.03;100051.16;5081039;27;45850;-45
2022/10/15 06:25:32;;;;;;;;;1.00;0.75;;;;;18.17;71.18;100051.25;5091790;27;59738;-42
2022/10/15 06:28:02;;;;;;;;;1.00;1.00;;;;;18.17;71.39;100051.25;5081034;27;46417;-44
2022/10/15 06:30:27;;;;;;;;;2.00;1.00;;;;;18.18;71.38;100060.88;5099346;27;45600;-45
2022/10/15 06:32:53;;;;;;;;;1.00;0.50;;;;;18.18;71.24;100064.38;5097679;27;45424;-43
2022/10/15 06:35:20;;;;;;;;;1.00;1.00;;;;;18.18;70.79;100071.47;5099557;27;45348;-44
2022/10/15 06:37:45;;;;;;;;;0.00;0.00;;;;;18.17;71.43;100067.13;5101538;27;45335;-44
2022/10/15 06:40:11;;;;;;;;;2.00;0.00;;;;;18.17;71.38;100067.97;5080112;27;45883;-43
2022/10/15 06:42:37;;;;;;;;;0.00;0.00;;;;;18.19;71.19;100068.72;5065453;28;45407;-43
2022/10/15 06:45:03;;;;;;;;;0.00;0.00;;;;;18.21;71.07;100073.91;5090690;27;45460;-46
2022/10/15 06:47:29;;;;;;;;;2.25;1.00;;;;;18.22;71.44;100072.97;5083636;27;46124;-44
2022/10/15 06:49:54;;;;;;;;;3.00;1.00;;;;;18.22;71.24;100075.63;5100377;27;68515;-46
2022/10/15 06:52:19;;;;;;;;;1.00;1.00;;;;;18.21;71.05;100073.91;5097927;27;45470;-44
2022/10/15 06:54:45;;;;;;;;;2.00;0.25;;;;;18.18;71.22;100074.97;5089622;27;45438;-44
2022/10/15 06:57:10;;;;;;;;;0.25;0.25;;;;;18.20;71.81;100072.19;5092039;27;45606;-43
2022/10/15 06:59:35;;;;;;;;;0.50;0.50;;;;;18.21;71.63;100080.03;5066824;28;71824;-48
2022/10/15 07:02:01;;;;;;;;;0.00;0.00;;;;;18.24;71.67;100072.84;5089812;27;59460;-48
2022/10/15 07:04:26;;;;;;;;;2.75;0.25;;;;;18.25;71.34;100075.38;5078812;27;45335;-47
2022/10/15 07:06:51;;;;;;;;;0.00;0.00;;;;;18.27;71.41;100086.72;5074047;27;48398;-50
2022/10/15 07:09:18;;;;;;;;;2.50;0.00;;;;;18.30;71.46;100080.38;5097754;27;58862;-49
2022/10/15 07:11:43;;;;;;;;;2.00;1.00;;;;;18.32;71.31;100078.44;5093909;27;45232;-49
2022/10/15 07:14:08;;;;;;;;;2.00;0.25;;;;;18.35;71.56;100083.53;5102005;27;45291;-49
2022/10/15 07:16:35;;;;;;;;;1.25;1.00;;;;;18.36;71.26;100080.78;5080253;27;45344;-46
2022/10/15 07:19:01;;;;;;;;;5.00;2.00;;;;;18.38;71.32;100078.88;5092193;27;45462;-49
2022/10/15 07:21:26;;;;;;;;;9.75;9.50;;;;;18.39;71.21;100088.50;5094995;27;45612;-48
2022/10/15 07:23:52;;;;;;;;;2.50;2.50;;;;;18.40;71.29;100094.66;5080145;27;66416;-43
2022/10/15 07:26:17;;;;;;;;;1.00;1.00;;;;;18.44;71.21;100097.94;5097217;27;46315;-44
2022/10/15 07:28:42;;;;;;;;;1.75;0.00;;;;;18.39;71.17;100096.44;5096308;27;53690;-45
2022/10/15 07:31:08;;;;;;;;;2.00;1.00;;;;;18.45;71.32;100099.63;5098229;27;45392;-45
2022/10/15 07:33:34;;;;;;;;;1.50;1.50;;;;;18.48;71.24;100102.91;5093389;27;58845;-41
2022/10/15 07:36:11;;;;;;;;;2.25;1.00;;;;;18.50;71.37;100108.09;5093529;27;46169;-44
2022/10/15 07:38:36;;;;;;;;;1.00;1.00;;;;;18.51;71.16;100113.28;5098823;27;45418;-50
2022/10/15 07:41:03;;;;;;;;;1.00;1.00;;;;;18.50;71.17;100111.63;5075358;27;46953;-48
2022/10/15 07:43:29;;;;;;;;;0.00;0.00;;;;;18.50;71.41;100119.56;5098040;27;45243;-48
2022/10/15 07:45:55;;;;;;;;;0.00;0.00;;;;;18.51;71.34;100113.28;5093309;27;46084;-47
2022/10/15 07:48:20;;;;;;;;;1.25;0.00;;;;;18.52;71.30;100115.00;5085665;27;45399;-50
2022/10/15 07:50:46;;;;;;;;;1.00;1.00;;;;;18.56;71.23;100118.28;5082238;27;45257;-53
2022/10/15 07:53:11;;;;;;;;;0.50;0.00;;;;;18.58;71.06;100124.31;5090617;27;45474;-49
2022/10/15 07:55:37;;;;;;;;;1.00;0.25;;;;;18.59;71.35;100133.94;5071663;28;46192;-52
2022/10/15 07:58:04;;;;;;;;;0.00;0.00;;;;;18.61;71.38;100129.41;5071378;27;45427;-50
2022/10/15 08:00:31;;;;;;;;;0.00;0.00;;;;;18.63;71.16;100134.59;5100233;27;45540;-49
2022/10/15 08:02:56;;;;;;;;;0.00;0.00;;;;;18.64;71.26;100141.59;5078978;27;45516;-48
2022/10/15 08:05:21;;;;;;;;;0.50;0.50;;;;;18.64;70.87;100139.78;5096184;27;67608;-50
2022/10/15 08:07:47;;;;;;;;;1.00;0.00;;;;;18.64;71.36;100149.53;5095454;27;67697;-48
2022/10/15 08:10:12;;;;;;;;;1.00;1.00;;;;;18.65;71.07;100149.44;5087888;27;45485;-49
2022/10/15 08:12:38;;;;;;;;;73.50;54.50;;;;;18.65;71.32;100148.59;5084821;27;45391;-51
2022/10/15 08:15:04;;;;;;;;;1.00;1.00;;;;;18.65;70.92;100144.13;5094998;27;46154;-50
2022/10/15 08:17:29;;;;;;;;;17.50;12.75;;;;;18.65;71.57;100138.84;5100573;27;45631;-45
2022/10/15 08:19:54;;;;;;;;;9.25;5.25;;;;;18.67;71.44;100142.22;5082048;27;45302;-44
2022/10/15 08:22:20;;;;;;;;;1.50;1.50;;;;;18.70;71.26;100146.47;5098587;27;59347;-44
2022/10/15 08:24:45;;;;;;;;;3.50;1.50;;;;;18.72;71.56;100148.03;5078649;27;70541;-45
2022/10/15 08:27:10;;;;;;;;;4.50;2.75;;;;;18.75;71.16;100152.28;5094247;27;45375;-48
2022/10/15 08:29:36;;;;;;;;;3.00;3.00;;;;;18.77;71.05;100156.53;5094069;27;65065;-41
2022/10/15 08:32:01;;;;;;;;;3.00;3.00;;;;;18.78;71.08;100155.56;5097604;27;70882;-47
2022/10/15 08:34:26;;;;;;;;;12.75;8.00;;;;;18.79;70.84;100146.66;5087032;27;45296;-46
2022/10/15 08:36:52;;;;;;;;;9.25;7.00;;;;;18.82;70.88;100150.06;5094239;27;59929;-43
2022/10/15 08:39:17;;;;;;;;;3.50;3.00;;;;;18.82;70.86;100150.91;5099596;27;45576;-50
2022/10/15 08:41:56;;;;;;;;;2.25;1.00;;;;;18.85;70.80;100153.34;5097833;27;73046;-44
2022/10/15 08:44:41;;;;;;;;;0.25;0.25;;;;;18.86;70.69;100156.88;5090185;27;47929;-51
2022/10/15 08:47:29;;;;;;;;;0.75;0.75;;;;;18.88;70.50;100163.75;5086427;27;45730;-51
2022/10/15 08:49:56;;;;;;;;;1.00;1.00;;;;;18.91;70.32;100165.31;5101752;27;45482;-50
2022/10/15 08:52:31;;;;;;;;;0.00;0.00;;;;;18.92;70.04;100172.34;5095602;27;47140;-46
2022/10/15 08:55:00;;;;;;;;;0.50;0.50;;;;;18.93;70.17;100164.28;5094097;27;45390;-44
2022/10/15 08:57:40;;;;;;;;;24.75;21.75;;;;;18.95;70.21;100166.81;5103711;27;45947;-48
2022/10/15 09:00:17;;;;;;;;;95.50;72.50;;;;;18.95;70.05;100172.13;5099803;27;45335;-45
2022/10/15 09:03:06;;;;;;;;;0.25;0.25;;;;;18.92;69.41;100173.16;5074581;28;45281;-45
2022/10/15 09:05:49;;;;;;;;;1.00;1.00;;;;;18.94;69.95;100178.38;5081613;27;47035;-45
2022/10/15 09:08:30;;;;;;;;;0.75;0.75;;;;;18.97;69.67;100176.34;5068909;27;45505;-46
2022/10/15 09:11:02;;;;;;;;;0.00;0.00;;;;;18.98;69.24;100179.84;5095759;27;45267;-47
2022/10/15 09:13:32;;;;;;;;;1.75;0.00;;;;;19.00;69.31;100177.06;5077698;27;45494;-45
2022/10/15 09:16:13;;;;;;;;;0.50;0.00;;;;;19.00;69.14;100183.25;5098060;27;46476;-50
2022/10/15 09:18:41;;;;;;;;;0.00;0.00;;;;;19.01;69.09;100182.28;5100644;27;45605;-47
2022/10/15 09:21:08;;;;;;;;;0.00;0.00;;;;;19.01;68.84;100187.56;5091408;27;45434;-46
2022/10/15 09:23:34;;;;;;;;;0.00;0.00;;;;;19.02;68.67;100189.28;5075208;27;45468;-43
2022/10/15 09:26:16;;;;;;;;;0.00;0.00;;;;;19.05;68.65;100193.50;5080069;27;45512;-43
2022/10/15 09:29:01;;;;;;;;;1.00;1.00;;;;;19.07;68.84;100196.91;5077828;27;45354;-46
2022/10/15 09:31:31;;;;;;;;;0.75;0.75;;;;;19.10;68.65;100205.47;5048022;27;45476;-43
2022/10/15 09:34:21;;;;;;;;;2.25;1.00;;;;;19.13;68.23;100202.63;5097569;27;45359;-44
2022/10/15 09:36:56;;;;;;;;;1.00;1.00;;;;;19.17;68.53;100205.91;5078991;27;46332;-44
2022/10/15 09:39:28;;;;;;;;;3.00;1.00;;;;;19.23;68.50;100210.78;5061088;27;46022;-46
2022/10/15 09:42:22;;;;;;;;;9.75;6.25;;;;;19.31;68.31;100204.91;5081589;27;45518;-43
2022/10/15 09:44:49;;;;;;;;;3.25;2.25;;;;;19.37;67.90;100204.50;5098869;27;45469;-43
2022/10/15 09:47:15;;;;;;;;;1.25;1.00;;;;;19.42;67.38;100212.09;5102794;27;45428;-49
2022/10/15 09:49:41;;;;;;;;;1.00;0.00;;;;;19.40;66.66;100214.03;5102066;27;45423;-48
2022/10/15 09:52:24;;;;;;;;;2.00;0.00;;;;;19.40;66.65;100214.84;5097670;27;45850;-48
2022/10/15 09:54:52;;;;;;;;;14.75;9.25;;;;;19.43;66.69;100227.91;5075023;28;45475;-46
2022/10/15 09:57:20;;;;;;;;;3.50;1.00;;;;;19.42;66.54;100220.06;5096988;27;46246;-47
2022/10/15 09:59:55;;;;;;;;;0.50;0.50;;;;;19.44;66.69;100223.44;5091777;27;45403;-45
2022/10/15 10:02:23;;;;;;;;;1.00;1.00;;;;;19.47;66.37;100226.72;5100151;27;45306;-49
2022/10/15 10:04:49;;;;;;;;;0.75;0.00;;;;;19.51;66.72;100246.78;5102973;27;45897;-46
2022/10/15 10:07:35;;;;;;;;;0.75;0.75;;;;;19.56;66.49;100257.06;5076364;27;73284;-46
2022/10/15 10:10:06;;;;;;;;;2.00;1.00;;;;;19.61;66.01;100264.69;5078313;28;45606;-46
2022/10/15 10:12:34;;;;;;;;;1.00;1.00;;;;;19.64;66.15;100265.31;5081988;27;45396;-46
2022/10/15 10:15:03;;;;;;;;;1.75;1.75;;;;;19.66;65.55;100262.56;5091491;27;45154;-45
2022/10/15 10:17:29;;;;;;;;;3.50;2.75;;;;;19.65;65.70;100260.84;5081513;27;45564;-46
2022/10/15 10:20:20;;;;;;;;;3.75;1.00;;;;;19.60;65.40;100263.84;5103505;27;45453;-48
2022/10/15 10:22:48;;;;;;;;;2.50;1.00;;;;;19.63;65.74;100271.59;5096746;27;45787;-47
2022/10/15 10:25:28;;;;;;;;;5.00;3.25;;;;;19.64;65.56;100262.66;5099079;27;45477;-48
2022/10/15 10:27:55;;;;;;;;;1.00;1.00;;;;;19.67;64.88;100261.59;5096615;27;46217;-44
2022/10/15 10:30:21;;;;;;;;;1.00;1.00;;;;;19.70;64.83;100272.81;5095321;27;45553;-45
2022/10/15 10:32:47;;;;;;;;;2.00;2.00;;;;;19.73;65.07;100275.31;5060941;27;45527;-47
2022/10/15 10:35:20;;;;;;;;;8.00;7.00;;;;;19.76;64.58;100274.25;5100630;27;50159;-44
2022/10/15 10:37:46;;;;;;;;;5.50;5.00;;;;;19.78;64.89;100269.66;5082782;27;46508;-44
2022/10/15 10:40:27;;;;;;;;;6.00;3.75;;;;;19.78;64.30;100292.69;5098185;27;56751;-45
2022/10/15 10:43:11;;;;;;;;;3.50;2.00;;;;;19.78;64.84;100292.69;5080638;27;45633;-49
2022/10/15 10:45:36;;;;;;;;;5.00;3.50;;;;;19.77;64.98;100283.88;5088125;27;45526;-43
2022/10/15 10:48:40;;;;;;;;;4.00;4.00;;;;;19.74;64.66;100289.41;5067900;27;47744;-49
2022/10/15 10:51:13;;;;;;;;;3.00;3.00;;;;;19.70;64.35;100279.94;5102217;27;45858;-46
2022/10/15 10:53:58;;;;;;;;;0.75;0.75;;;;;19.66;64.80;100286.44;5083660;27;45467;-46
2022/10/15 10:56:36;;;;;;;;;1.00;1.00;;;;;19.62;64.22;100288.47;5066149;27;45478;-45
2022/10/15 10:59:24;;;;;;;;;3.25;3.25;;;;;19.60;64.68;100295.72;5083374;27;45994;-50
2022/10/15 11:01:50;;;;;;;;;6.00;5.75;;;;;19.59;64.33;100285.19;5079555;27;45351;-49
2022/10/15 11:04:26;;;;;;;;;5.75;5.00;;;;;19.59;64.40;100301.13;5096704;27;45450;-50
2022/10/15 11:06:57;;;;;;;;;3.50;2.75;;;;;19.58;64.31;100310.88;5079322;27;45321;-48
2022/10/15 11:09:54;;;;;;;;;2.00;2.00;;;;;19.59;64.07;100301.97;5097059;27;47055;-45
2022/10/15 11:12:55;;;;;;;;;2.50;2.00;;;;;19.59;63.79;100301.13;5091560;27;45611;-44
2022/10/15 11:15:26;;;;;;;;;4.75;1.25;;;;;19.67;64.05;100314.69;5104105;27;45386;-48
2022/10/15 11:18:18;;;;;;;;;1.25;1.25;;;;;19.68;63.66;100303.94;5094998;27;45343;-48
2022/10/15 11:21:05;;;;;;;;;2.00;0.50;;;;;19.73;64.07;100300.97;5083371;27;45433;-46
2022/10/15 11:23:50;;;;;;;;;1.00;1.00;;;;;19.74;63.92;100305.34;5092966;27;45920;-48
2022/10/15 11:27:03;;;;;;;;;2.25;1.00;;;;;19.75;63.61;100314.19;5071019;27;45308;-48
2022/10/15 11:29:40;;;;;;;;;1.00;1.00;;;;;19.73;64.13;100320.44;5039554;28;45356;-47
2022/10/15 11:32:51;;;;;;;;;2.25;2.25;;;;;19.77;63.00;100315.75;5050312;28;45343;-46
2022/10/15 11:35:37;;;;;;;;;1.00;1.00;;;;;19.79;62.26;100315.66;5064969;27;45452;-46
2022/10/15 11:38:21;;;;;;;;;1.00;0.25;;;;;19.77;62.07;100323.72;5093948;27;45410;-51